Time;durP1;ratioP1;P1;durP2;ratioP2;P2;SDS_P1;SDS_P2;PMS_P1;PMS_P2;Temp;Humidity;BMP_temperature;BMP_pressure;BME280_temperature;BME280_humidity;BME280_pressure;Samples;Min_cycle;Max_cycle;Signal;HPM_P1;HPM_P2
2022/07/28 00:02:43;;;;;;;0.20;0.00;;;25.40;99.90;;;;;;25695117;23;20253;-70
2022/07/28 00:12:47;;;;;;;0.20;0.00;;;25.30;99.90;;;;;;25695222;23;20206;-71
2022/07/28 00:22:52;;;;;;;0.20;0.00;;;25.30;99.90;;;;;;25695597;23;20217;-70
2022/07/28 00:32:56;;;;;;;0.20;0.00;;;24.90;99.90;;;;;;25702413;23;20232;-69
2022/07/28 00:43:01;;;;;;;0.20;0.00;;;24.70;99.90;;;;;;25701715;23;20170;-69
2022/07/28 00:53:06;;;;;;;0.20;0.00;;;24.60;99.90;;;;;;25701087;23;20229;-69
2022/07/28 01:03:12;;;;;;;0.20;0.00;;;24.50;99.90;;;;;;25674449;23;20313;-70
2022/07/28 01:13:22;;;;;;;0.20;0.00;;;24.50;99.90;;;;;;25699972;23;20216;-71
2022/07/28 01:23:51;;;;;;;0.20;0.00;;;24.50;99.90;;;;;;25675216;23;20181;-70
2022/07/28 01:34:00;;;;;;;0.20;0.00;;;24.40;99.90;;;;;;25700415;23;20182;-70
2022/07/28 01:44:08;;;;;;;0.20;0.00;;;24.30;99.90;;;;;;25699798;23;20169;-70
2022/07/28 01:54:14;;;;;;;0.20;0.00;;;24.30;99.90;;;;;;25698613;23;20281;-70
2022/07/28 02:04:21;;;;;;;0.20;0.00;;;24.40;99.90;;;;;;25673253;23;20208;-70
2022/07/28 02:14:28;;;;;;;0.20;0.00;;;24.40;99.90;;;;;;25698886;23;20194;-69
2022/07/28 02:24:33;;;;;;;0.20;0.00;;;24.40;99.90;;;;;;25698003;23;20635;-70
2022/07/28 02:34:40;;;;;;;0.20;0.00;;;24.50;99.90;;;;;;25697370;23;20237;-71
2022/07/28 02:44:49;;;;;;;0.20;0.00;;;24.50;99.90;;;;;;25696879;23;20173;-71
2022/07/28 02:54:56;;;;;;;0.20;0.00;;;24.50;99.90;;;;;;25696644;23;20214;-70
2022/07/28 03:05:01;;;;;;;0.20;0.00;;;24.70;99.90;;;;;;25696083;23;20245;-70
2022/07/28 03:15:14;;;;;;;0.20;0.00;;;24.70;99.90;;;;;;25670087;23;20213;-72
2022/07/28 03:25:23;;;;;;;0.20;0.00;;;24.80;99.90;;;;;;25696462;23;20190;-71
2022/07/28 03:35:31;;;;;;;0.20;0.00;;;24.90;99.90;;;;;;25695697;23;20194;-71
2022/07/28 03:45:35;;;;;;;0.20;0.00;;;24.70;99.90;;;;;;25695682;23;20159;-70
2022/07/28 03:55:49;;;;;;;0.20;0.00;;;24.50;99.90;;;;;;25694030;23;20190;-71
2022/07/28 04:05:55;;;;;;;0.20;0.00;;;24.40;99.90;;;;;;25668737;23;20193;-70
2022/07/28 04:16:00;;;;;;;0.20;0.10;;;24.20;99.90;;;;;;25668949;23;20210;-70
2022/07/28 04:26:04;;;;;;;0.20;0.00;;;24.00;99.90;;;;;;25665264;23;20255;-69
2022/07/28 04:36:10;;;;;;;0.20;0.00;;;23.90;99.90;;;;;;25692919;23;20246;-69
2022/07/28 04:46:14;;;;;;;0.20;0.00;;;23.90;99.90;;;;;;25693004;23;20162;-69
2022/07/28 04:56:20;;;;;;;0.20;0.00;;;24.00;99.90;;;;;;25666943;23;20191;-70
2022/07/28 05:06:23;;;;;;;0.20;0.00;;;24.20;99.90;;;;;;25665599;23;20205;-71
2022/07/28 05:16:29;;;;;;;0.20;0.00;;;24.60;99.90;;;;;;25698694;23;20257;-71
2022/07/28 05:26:34;;;;;;;0.20;0.05;;;24.80;99.90;;;;;;25673838;23;20170;-70
2022/07/28 05:36:40;;;;;;;0.20;0.00;;;25.30;99.90;;;;;;25698145;23;20234;-70
2022/07/28 05:46:43;;;;;;;0.20;0.00;;;25.40;99.90;;;;;;25696130;23;20205;-70
2022/07/28 05:56:49;;;;;;;0.20;0.00;;;25.50;99.90;;;;;;25696667;23;20190;-71
2022/07/28 06:06:53;;;;;;;0.20;0.00;;;25.60;99.90;;;;;;25695711;23;20252;-70
2022/07/28 06:16:59;;;;;;;0.20;0.00;;;25.40;99.90;;;;;;25696507;23;20209;-71
2022/07/28 06:27:05;;;;;;;0.20;0.00;;;25.40;99.90;;;;;;25669346;23;20235;-69
2022/07/28 06:37:10;;;;;;;0.20;0.00;;;25.40;99.90;;;;;;25694553;23;20277;-72
2022/07/28 06:47:14;;;;;;;0.20;0.00;;;25.50;99.90;;;;;;25655772;23;20190;-71
2022/07/28 06:57:21;;;;;;;0.20;0.00;;;25.40;99.90;;;;;;25691298;23;20186;-70
2022/07/28 07:07:35;;;;;;;0.20;0.00;;;25.50;99.90;;;;;;25690630;23;20217;-70
2022/07/28 07:17:46;;;;;;;0.20;0.00;;;25.60;99.90;;;;;;25665782;23;20205;-70
2022/07/28 07:27:50;;;;;;;0.20;0.00;;;25.60;99.90;;;;;;25693752;23;20162;-70
2022/07/28 07:37:56;;;;;;;0.20;0.00;;;25.70;99.90;;;;;;25687757;23;20197;-68
2022/07/28 07:48:00;;;;;;;0.20;0.00;;;25.80;99.90;;;;;;25691594;23;20170;-70
2022/07/28 07:58:06;;;;;;;0.20;0.00;;;26.00;99.90;;;;;;25690414;23;20182;-70
2022/07/28 08:08:10;;;;;;;0.20;0.00;;;26.00;99.90;;;;;;25666223;23;20205;-71
2022/07/28 08:18:15;;;;;;;0.20;0.00;;;26.40;99.90;;;;;;25692006;23;20201;-70
2022/07/28 08:28:19;;;;;;;0.20;0.00;;;26.70;99.90;;;;;;25682452;23;20214;-71
2022/07/28 08:38:24;;;;;;;0.20;0.00;;;26.70;99.90;;;;;;25655415;23;20659;-70
2022/07/28 08:48:31;;;;;;;0.20;0.00;;;26.90;99.90;;;;;;25683489;23;20186;-71
2022/07/28 08:58:38;;;;;;;0.20;0.00;;;28.40;99.90;;;;;;25659498;23;20220;-69
2022/07/28 09:08:43;;;;;;;0.20;0.00;;;27.50;99.90;;;;;;25673732;23;20202;-67
2022/07/28 09:18:48;;;;;;;0.20;0.00;;;27.70;99.90;;;;;;25685845;23;20202;-67
2022/07/28 09:28:54;;;;;;;0.20;0.00;;;28.50;99.90;;;;;;25662120;23;20150;-66
2022/07/28 09:39:00;;;;;;;0.20;0.00;;;28.70;99.90;;;;;;25659785;23;20254;-67
2022/07/28 09:49:04;;;;;;;0.20;0.00;;;28.90;99.90;;;;;;25685136;23;20155;-67
2022/07/28 09:59:09;;;;;;;0.20;0.00;;;28.80;99.90;;;;;;25658623;23;20198;-67
2022/07/28 10:09:25;;;;;;;0.20;0.00;;;29.00;99.90;;;;;;25683129;23;20196;-67
2022/07/28 10:19:31;;;;;;;0.20;0.00;;;29.20;99.90;;;;;;25683953;23;20205;-68
2022/07/28 10:29:35;;;;;;;0.20;0.00;;;29.40;99.90;;;;;;25684431;23;20202;-68
2022/07/28 10:39:57;;;;;;;0.20;0.00;;;29.10;99.90;;;;;;25656433;23;20234;-66
2022/07/28 10:50:02;;;;;;;0.20;0.00;;;30.00;99.90;;;;;;25681996;23;20282;-68
2022/07/28 11:00:16;;;;;;;0.20;0.00;;;30.40;99.90;;;;;;25692597;23;20251;-66
2022/07/28 11:10:29;;;;;;;0.20;0.00;;;30.60;99.90;;;;;;25692332;23;20158;-67
2022/07/28 11:21:18;;;;;;;0.20;0.00;;;31.60;99.90;;;;;;25690628;23;20259;-67
2022/07/28 11:32:10;;;;;;;0.20;0.10;;;31.10;99.90;;;;;;25598216;23;20190;-69
2022/07/28 11:42:27;;;;;;;0.20;0.00;;;31.30;99.90;;;;;;25680083;23;20162;-70
2022/07/28 11:52:36;;;;;;;0.20;0.00;;;32.00;99.90;;;;;;25678697;23;20186;-68
2022/07/28 12:02:41;;;;;;;0.20;0.00;;;30.90;99.90;;;;;;25677342;23;20205;-70
2022/07/28 12:12:51;;;;;;;0.20;0.00;;;30.70;99.90;;;;;;25678844;23;20274;-68
2022/07/28 12:22:56;;;;;;;0.20;0.00;;;31.00;99.90;;;;;;25682833;23;20182;-70
2022/07/28 12:33:16;;;;;;;0.20;0.00;;;32.40;99.90;;;;;;25685061;23;21161;-68
2022/07/28 12:43:24;;;;;;;0.20;0.00;;;32.00;99.90;;;;;;25659294;23;20174;-68
2022/07/28 12:53:30;;;;;;;0.20;0.00;;;32.40;99.90;;;;;;25679554;23;20240;-68
2022/07/28 13:03:36;;;;;;;0.20;0.00;;;32.80;99.90;;;;;;25694351;23;20249;-69
2022/07/28 13:13:54;;;;;;;0.20;0.00;;;33.70;99.90;;;;;;25695067;23;20186;-68
2022/07/28 13:23:58;;;;;;;0.20;0.00;;;34.00;99.90;;;;;;25660922;23;20238;-70
2022/07/28 13:34:04;;;;;;;0.20;0.00;;;32.10;99.90;;;;;;25683588;23;20269;-68
2022/07/28 13:44:08;;;;;;;0.20;0.00;;;31.60;99.90;;;;;;25654914;23;20178;-68
2022/07/28 13:54:14;;;;;;;0.20;0.00;;;30.60;99.90;;;;;;25681885;23;20194;-69
2022/07/28 14:04:18;;;;;;;0.20;0.00;;;29.80;99.90;;;;;;25680162;23;20206;-69
2022/07/28 14:14:25;;;;;;;0.20;0.00;;;29.20;99.90;;;;;;25652600;23;20190;-67
2022/07/28 14:24:29;;;;;;;0.20;0.00;;;28.80;99.90;;;;;;25652074;23;20166;-67
2022/07/28 14:34:34;;;;;;;0.20;0.00;;;28.10;99.90;;;;;;25673548;23;20205;-68
2022/07/28 14:44:38;;;;;;;0.20;0.00;;;28.20;99.90;;;;;;25674957;23;20193;-68
2022/07/28 14:54:44;;;;;;;0.20;0.00;;;28.00;99.90;;;;;;25680556;23;20212;-68
2022/07/28 15:04:47;;;;;;;0.20;0.00;;;28.20;99.90;;;;;;25679106;23;20228;-69
2022/07/28 15:14:53;;;;;;;0.20;0.00;;;28.20;99.90;;;;;;25678022;23;20303;-68
2022/07/28 15:24:56;;;;;;;0.20;0.00;;;28.30;99.90;;;;;;25676686;23;20316;-69
2022/07/28 15:35:02;;;;;;;0.20;0.00;;;28.30;99.90;;;;;;25678727;23;20206;-68
2022/07/28 15:45:07;;;;;;;0.20;0.00;;;28.20;99.90;;;;;;25678204;23;20278;-69
2022/07/28 15:55:12;;;;;;;0.20;0.00;;;28.20;99.90;;;;;;25678974;23;20194;-70
2022/07/28 16:05:16;;;;;;;0.20;0.00;;;28.30;99.90;;;;;;25678203;23;20194;-68
2022/07/28 16:15:23;;;;;;;0.20;0.00;;;28.60;99.90;;;;;;25651269;23;20186;-68
2022/07/28 16:25:28;;;;;;;0.20;0.00;;;29.50;99.90;;;;;;25676678;23;20158;-69
2022/07/28 16:35:34;;;;;;;0.20;0.00;;;30.00;99.90;;;;;;25675778;23;20217;-69
2022/07/28 16:45:37;;;;;;;0.20;0.00;;;30.60;99.90;;;;;;25677891;23;20174;-68
2022/07/28 16:55:44;;;;;;;0.20;0.00;;;30.40;99.90;;;;;;25681189;23;20217;-69
2022/07/28 17:05:48;;;;;;;0.20;0.00;;;30.30;99.90;;;;;;25665645;23;20218;-68
2022/07/28 17:15:53;;;;;;;0.20;0.00;;;30.50;99.90;;;;;;25672905;23;20194;-69
2022/07/28 17:25:57;;;;;;;0.20;0.00;;;29.70;99.90;;;;;;25694260;23;20154;-69
2022/07/28 17:36:22;;;;;;;0.20;0.00;;;29.10;99.90;;;;;;25693505;23;20190;-70
2022/07/28 17:46:26;;;;;;;0.20;0.00;;;29.30;99.90;;;;;;25697319;23;20170;-69
2022/07/28 17:56:32;;;;;;;0.20;0.00;;;29.20;99.90;;;;;;25696656;23;20186;-69
2022/07/28 18:06:39;;;;;;;0.20;0.10;;;28.90;99.90;;;;;;25693425;23;20193;-70
2022/07/28 18:16:44;;;;;;;0.20;0.00;;;28.80;99.90;;;;;;25694652;23;20183;-70
2022/07/28 18:26:48;;;;;;;0.20;0.00;;;28.30;99.90;;;;;;25694804;23;20185;-69
2022/07/28 18:36:54;;;;;;;0.20;0.00;;;28.20;99.90;;;;;;25693988;23;20217;-68
2022/07/28 18:46:58;;;;;;;0.20;0.00;;;28.10;99.90;;;;;;25693860;23;20151;-67
2022/07/28 18:57:03;;;;;;;0.20;0.00;;;28.10;99.90;;;;;;25693472;23;20237;-68
2022/07/28 19:07:08;;;;;;;0.20;0.00;;;28.00;99.90;;;;;;25686732;23;20214;-69
2022/07/28 19:17:13;;;;;;;0.20;0.00;;;27.90;99.90;;;;;;25687033;23;20213;-69
2022/07/28 19:27:17;;;;;;;0.20;0.00;;;27.70;99.90;;;;;;25693729;23;20158;-70
2022/07/28 19:37:23;;;;;;;0.20;0.00;;;27.60;99.90;;;;;;25686717;23;20190;-68
2022/07/28 19:47:27;;;;;;;0.20;0.00;;;27.40;99.90;;;;;;25663150;23;20174;-68
2022/07/28 19:57:32;;;;;;;0.20;0.00;;;27.40;99.90;;;;;;25664724;23;20202;-69
2022/07/28 20:07:36;;;;;;;0.20;0.00;;;27.50;99.90;;;;;;25663443;23;20221;-67
2022/07/28 20:17:42;;;;;;;0.20;0.10;;;27.40;99.90;;;;;;25690697;23;20243;-69
2022/07/28 20:27:46;;;;;;;0.20;0.00;;;27.30;99.90;;;;;;25690120;23;20166;-68
2022/07/28 20:37:51;;;;;;;0.20;0.00;;;27.10;99.90;;;;;;25687756;23;20217;-68
2022/07/28 20:47:55;;;;;;;0.20;0.00;;;26.90;99.90;;;;;;25697186;23;20185;-68
2022/07/28 20:58:00;;;;;;;0.20;0.00;;;26.90;99.90;;;;;;25697000;23;20190;-68
2022/07/28 21:08:05;;;;;;;0.20;0.00;;;26.70;99.90;;;;;;25697294;23;20198;-67
2022/07/28 21:18:20;;;;;;;0.20;0.00;;;26.40;99.90;;;;;;25696526;23;20255;-68
2022/07/28 21:38:46;;;;;;;0.20;0.00;;;25.90;99.90;;;;;;25697709;23;20201;-69
2022/07/28 21:48:50;;;;;;;0.20;0.00;;;25.80;99.90;;;;;;25699372;23;20222;-69
2022/07/28 21:58:56;;;;;;;0.20;0.00;;;25.50;99.90;;;;;;25693940;23;20278;-68
2022/07/28 22:09:00;;;;;;;0.20;0.00;;;25.40;99.90;;;;;;25694547;23;20194;-67
2022/07/28 22:19:06;;;;;;;0.20;0.10;;;25.20;99.90;;;;;;25697158;23;20186;-69
2022/07/28 22:29:10;;;;;;;0.20;0.00;;;25.20;99.90;;;;;;25697875;23;20166;-67
2022/07/28 22:39:16;;;;;;;0.20;0.00;;;25.20;99.90;;;;;;25670972;23;20209;-68
2022/07/28 22:49:19;;;;;;;0.20;0.00;;;25.10;99.90;;;;;;25696962;23;20167;-69
2022/07/28 22:59:26;;;;;;;0.20;0.00;;;25.20;99.90;;;;;;25671864;23;20201;-69
2022/07/28 23:09:33;;;;;;;0.20;0.00;;;25.00;99.90;;;;;;25672809;23;20190;-70
2022/07/28 23:19:38;;;;;;;0.20;0.00;;;25.00;99.90;;;;;;25698446;23;20246;-70
2022/07/28 23:29:42;;;;;;;0.20;0.00;;;24.90;99.90;;;;;;25698406;23;20170;-70
2022/07/28 23:39:47;;;;;;;0.20;0.00;;;24.80;99.90;;;;;;25697860;23;20214;-68
2022/07/28 23:49:51;;;;;;;0.20;0.00;;;24.80;99.90;;;;;;25696709;23;20185;-68
2022/07/28 23:59:56;;;;;;;0.20;0.00;;;24.80;99.90;;;;;;25696274;23;20205;-70
